createdAt,value
2022-11-30T00:01:19.943Z,36.17
2022-11-30T00:03:46.647Z,34.53
2022-11-30T00:06:15.058Z,34.65
2022-11-30T00:08:41.479Z,34.80
2022-11-30T00:11:08.472Z,37.28
2022-11-30T00:13:34.760Z,40.25
2022-11-30T00:16:01.294Z,38.40
2022-11-30T00:18:27.638Z,37.83
2022-11-30T00:20:53.981Z,35.03
2022-11-30T00:23:21.617Z,37.15
2022-11-30T00:25:47.905Z,42.45
2022-11-30T00:28:14.209Z,35.47
2022-11-30T00:30:40.554Z,38.95
2022-11-30T00:33:06.886Z,36.42
2022-11-30T00:35:33.184Z,35.28
2022-11-30T00:38:01.284Z,36.60
2022-11-30T00:40:28.971Z,43.92
2022-11-30T00:42:55.293Z,36.60
2022-11-30T00:45:21.558Z,40.13
2022-11-30T00:47:47.882Z,41.97
2022-11-30T00:50:14.173Z,36.90
2022-11-30T00:52:40.470Z,39.95
2022-11-30T00:55:07.520Z,37.45
2022-11-30T00:57:35.197Z,39.42
2022-11-30T01:00:01.477Z,36.30
2022-11-30T01:02:27.927Z,42.67
2022-11-30T01:04:54.266Z,40.15
2022-11-30T01:07:20.626Z,35.65
2022-11-30T01:09:46.973Z,37.20
2022-11-30T01:12:13.232Z,38.80
2022-11-30T01:14:40.878Z,41.75
2022-11-30T01:17:07.166Z,38.38
2022-11-30T01:19:33.462Z,35.45
2022-11-30T01:21:59.762Z,40.97
2022-11-30T01:24:26.042Z,40.95
2022-11-30T01:26:52.370Z,43.88
2022-11-30T01:29:18.663Z,39.80
2022-11-30T01:31:46.270Z,43.67
2022-11-30T01:34:12.566Z,45.22
2022-11-30T01:36:38.861Z,40.60
2022-11-30T01:39:07.010Z,41.90
2022-11-30T01:41:33.453Z,41.47
2022-11-30T01:44:19.499Z,37.78
2022-11-30T01:46:49.914Z,42.97
2022-11-30T01:49:17.206Z,42.25
2022-11-30T01:51:45.552Z,39.35
2022-11-30T01:54:14.293Z,43.17
2022-11-30T01:56:43.678Z,44.47
2022-11-30T01:59:10.236Z,42.88
2022-11-30T02:01:36.932Z,43.90
2022-11-30T02:04:07.481Z,44.72
2022-11-30T02:06:33.933Z,46.33
2022-11-30T02:09:00.863Z,37.65
2022-11-30T02:11:27.501Z,43.25
2022-11-30T02:13:58.603Z,41.83
2022-11-30T02:16:27.939Z,40.00
2022-11-30T02:18:57.736Z,37.25
2022-11-30T02:21:29.879Z,35.85
2022-11-30T02:24:05.146Z,29.88
2022-11-30T02:26:49.106Z,34.88
2022-11-30T02:29:21.035Z,37.13
2022-11-30T02:31:49.407Z,30.42
2022-11-30T02:34:15.991Z,29.52
2022-11-30T02:36:42.405Z,35.00
2022-11-30T02:39:09.792Z,31.90
2022-11-30T02:41:38.292Z,30.60
2022-11-30T02:44:05.215Z,34.20
2022-11-30T02:46:35.799Z,30.33
2022-11-30T02:49:04.856Z,27.90
2022-11-30T02:51:32.362Z,38.42
2022-11-30T02:53:58.687Z,31.25
2022-11-30T02:56:25.644Z,35.38
2022-11-30T02:58:51.985Z,37.00
2022-11-30T03:01:18.383Z,35.83
2022-11-30T03:03:46.035Z,34.28
2022-11-30T03:06:12.391Z,38.88
2022-11-30T03:08:38.695Z,37.72
2022-11-30T03:11:05.712Z,35.90
2022-11-30T03:13:32.312Z,39.65
2022-11-30T03:15:58.649Z,38.15
2022-11-30T03:18:25.080Z,36.80
2022-11-30T03:20:55.229Z,42.85
2022-11-30T03:23:21.481Z,35.60
2022-11-30T03:25:47.810Z,40.17
2022-11-30T03:28:14.114Z,37.92
2022-11-30T03:30:40.432Z,41.75
2022-11-30T03:33:06.708Z,38.85
2022-11-30T03:35:32.984Z,40.47
2022-11-30T03:38:00.707Z,43.22
2022-11-30T03:40:26.991Z,35.55
2022-11-30T03:42:53.271Z,38.97
2022-11-30T03:45:19.539Z,37.28
2022-11-30T03:47:45.809Z,40.80
2022-11-30T03:50:12.108Z,37.50
2022-11-30T03:52:38.396Z,39.80
2022-11-30T03:55:06.959Z,40.13
2022-11-30T03:57:33.213Z,41.65
2022-11-30T03:59:59.494Z,40.33
2022-11-30T04:02:25.790Z,37.88
2022-11-30T04:04:52.552Z,44.00
2022-11-30T04:07:18.892Z,33.97
2022-11-30T04:09:45.220Z,40.17
2022-11-30T04:12:12.879Z,37.47
2022-11-30T04:14:39.197Z,39.35
2022-11-30T04:17:05.493Z,36.45
2022-11-30T04:19:31.786Z,40.45
2022-11-30T04:21:58.061Z,38.22
2022-11-30T04:24:24.354Z,40.75
2022-11-30T04:26:50.625Z,40.50
2022-11-30T04:29:18.265Z,35.92
2022-11-30T04:31:44.718Z,37.15
2022-11-30T04:34:11.225Z,39.15
2022-11-30T04:36:37.484Z,40.17
2022-11-30T04:39:03.918Z,41.13
2022-11-30T04:41:30.229Z,34.83
2022-11-30T04:43:56.485Z,37.67
2022-11-30T04:46:24.204Z,45.58
2022-11-30T04:48:50.564Z,38.42
2022-11-30T04:51:16.905Z,33.42
2022-11-30T04:53:43.172Z,35.83
2022-11-30T04:56:10.824Z,33.60
2022-11-30T04:58:37.224Z,29.95
2022-11-30T05:01:07.107Z,34.33
2022-11-30T05:03:34.930Z,31.95
2022-11-30T05:06:01.284Z,31.52
2022-11-30T05:08:27.577Z,32.40
2022-11-30T05:10:54.282Z,29.27
2022-11-30T05:13:21.149Z,31.73
2022-11-30T05:15:47.529Z,30.83
2022-11-30T05:18:13.890Z,32.00
2022-11-30T05:20:41.638Z,37.83
2022-11-30T05:23:07.934Z,34.15
2022-11-30T05:25:34.282Z,39.15
2022-11-30T05:28:00.578Z,37.80
2022-11-30T05:30:26.874Z,35.38
2022-11-30T05:32:53.175Z,34.60
2022-11-30T05:35:19.486Z,32.97
2022-11-30T05:37:47.143Z,32.83
2022-11-30T05:40:13.693Z,35.72
2022-11-30T05:42:40.019Z,35.80
2022-11-30T05:45:06.754Z,35.85
2022-11-30T05:47:33.102Z,32.17
2022-11-30T05:49:59.428Z,32.50
2022-11-30T05:52:25.734Z,31.65
2022-11-30T05:54:53.378Z,33.15
2022-11-30T05:57:19.675Z,33.88
2022-11-30T05:59:46.000Z,37.08
2022-11-30T06:02:12.405Z,32.75
2022-11-30T06:04:38.777Z,30.85
2022-11-30T06:07:05.084Z,27.38
2022-11-30T06:09:31.392Z,26.30
2022-11-30T06:11:59.108Z,26.73
2022-11-30T06:14:25.414Z,25.00
2022-11-30T06:16:51.778Z,32.75
2022-11-30T06:19:18.199Z,33.78
2022-11-30T06:21:47.032Z,27.05
2022-11-30T06:24:13.593Z,28.63
2022-11-30T06:26:39.893Z,33.15
2022-11-30T06:29:08.962Z,30.20
2022-11-30T06:31:35.279Z,28.73
2022-11-30T06:34:01.679Z,31.08
2022-11-30T06:36:34.107Z,24.77
2022-11-30T06:39:02.055Z,30.55
2022-11-30T06:41:28.390Z,26.50
2022-11-30T06:43:54.678Z,30.70
2022-11-30T06:46:22.403Z,27.42
2022-11-30T06:48:49.063Z,33.33
2022-11-30T06:51:15.370Z,25.40
2022-11-30T06:53:42.566Z,25.20
2022-11-30T06:56:10.838Z,30.38
2022-11-30T06:58:37.449Z,34.20
2022-11-30T07:01:04.286Z,25.08
2022-11-30T07:03:32.131Z,31.70
2022-11-30T07:05:58.506Z,26.20
2022-11-30T07:08:24.852Z,28.55
2022-11-30T07:10:51.231Z,29.73
2022-11-30T07:13:18.687Z,28.38
2022-11-30T07:15:45.571Z,32.08
2022-11-30T07:18:12.052Z,34.65
2022-11-30T07:20:39.809Z,30.65
2022-11-30T07:23:06.141Z,28.83
2022-11-30T07:25:32.475Z,24.35
2022-11-30T07:27:59.133Z,32.20
2022-11-30T07:30:25.475Z,28.17
2022-11-30T07:32:51.864Z,28.95
2022-11-30T07:35:18.261Z,27.13
2022-11-30T07:37:45.929Z,23.35
2022-11-30T07:40:12.796Z,30.45
2022-11-30T07:42:39.200Z,30.55
2022-11-30T07:45:11.547Z,27.48
2022-11-30T07:47:38.019Z,27.70
2022-11-30T07:50:04.936Z,23.92
2022-11-30T07:52:33.816Z,31.98
2022-11-30T07:55:01.656Z,26.38
2022-11-30T07:57:28.137Z,26.25
2022-11-30T07:59:54.680Z,28.65
2022-11-30T08:02:21.101Z,26.85
2022-11-30T08:04:47.979Z,28.35
2022-11-30T08:07:14.689Z,31.13
2022-11-30T08:09:40.989Z,24.70
2022-11-30T08:12:08.772Z,33.72
2022-11-30T08:14:50.667Z,39.92
2022-11-30T08:17:21.409Z,43.28
2022-11-30T08:19:47.823Z,34.28
2022-11-30T08:22:14.080Z,29.92
2022-11-30T08:24:40.448Z,30.17
2022-11-30T08:27:06.731Z,37.13
2022-11-30T08:29:34.488Z,33.35
2022-11-30T08:32:00.836Z,34.33
2022-11-30T08:34:27.192Z,31.80
2022-11-30T08:36:54.245Z,30.95
2022-11-30T08:39:20.657Z,34.17
2022-11-30T08:41:47.057Z,30.38
2022-11-30T08:44:13.353Z,32.58
2022-11-30T08:46:51.618Z,29.95
2022-11-30T08:49:22.073Z,28.08
2022-11-30T08:54:36.040Z,24.48
2022-11-30T08:57:02.381Z,26.20
2022-11-30T08:59:30.812Z,25.95
2022-11-30T09:01:58.521Z,29.00
2022-11-30T09:04:24.948Z,29.50
2022-11-30T09:06:51.265Z,27.85
2022-11-30T09:09:17.605Z,32.30
2022-11-30T09:11:44.025Z,28.73
2022-11-30T09:14:10.422Z,24.92
2022-11-30T09:16:36.796Z,26.77
2022-11-30T09:19:04.455Z,27.92
2022-11-30T09:21:30.758Z,27.10
2022-11-30T09:23:57.131Z,26.83
2022-11-30T09:26:23.414Z,29.13
2022-11-30T09:28:49.734Z,25.77
2022-11-30T09:31:16.987Z,28.25
2022-11-30T09:33:44.058Z,29.17
2022-11-30T09:36:12.396Z,29.50
2022-11-30T09:38:39.274Z,33.17
2022-11-30T09:41:06.686Z,26.90
2022-11-30T09:43:40.025Z,26.25
2022-11-30T09:46:06.836Z,28.95
2022-11-30T09:48:39.862Z,27.50
2022-11-30T09:51:10.387Z,28.65
2022-11-30T09:53:41.273Z,23.02
2022-11-30T09:56:16.300Z,27.75
2022-11-30T09:58:46.174Z,27.13
2022-11-30T10:01:19.877Z,23.63
2022-11-30T10:03:46.375Z,32.92
2022-11-30T10:06:18.522Z,30.52
2022-11-30T10:08:55.607Z,30.50
2022-11-30T10:11:31.483Z,31.42
2022-11-30T10:14:09.260Z,28.65
2022-11-30T10:16:39.543Z,26.77
2022-11-30T10:19:11.367Z,32.40
2022-11-30T10:21:42.511Z,31.65
2022-11-30T10:24:17.962Z,31.58
2022-11-30T10:26:49.067Z,30.52
2022-11-30T10:29:17.950Z,32.67
2022-11-30T10:31:44.819Z,36.00
2022-11-30T10:34:18.078Z,35.75
2022-11-30T10:36:46.283Z,34.85
2022-11-30T10:39:17.671Z,32.25
2022-11-30T10:41:47.563Z,35.55
2022-11-30T10:44:17.220Z,34.00
2022-11-30T10:46:49.101Z,27.70
2022-11-30T10:49:16.582Z,33.78
2022-11-30T10:51:43.638Z,29.80
2022-11-30T10:54:13.335Z,31.95
2022-11-30T10:56:39.674Z,32.22
2022-11-30T10:59:11.495Z,32.42
2022-11-30T11:01:38.498Z,35.63
2022-11-30T11:04:09.054Z,25.80
2022-11-30T11:06:35.786Z,32.10
2022-11-30T11:09:22.395Z,34.72
2022-11-30T11:11:52.567Z,28.20
2022-11-30T11:14:21.543Z,33.72
2022-11-30T11:16:55.812Z,30.00
2022-11-30T11:19:23.999Z,27.15
2022-11-30T11:21:50.760Z,35.45
2022-11-30T11:24:17.264Z,31.55
2022-11-30T11:26:49.104Z,29.27
2022-11-30T11:29:23.284Z,36.67
2022-11-30T11:31:49.659Z,32.50
2022-11-30T11:34:23.380Z,35.08
2022-11-30T11:37:03.578Z,36.63
2022-11-30T11:39:29.984Z,35.50
2022-11-30T11:41:56.887Z,36.22
2022-11-30T11:44:26.163Z,38.65
2022-11-30T11:49:20.496Z,37.92
2022-11-30T11:51:47.085Z,38.40
2022-11-30T11:54:19.794Z,36.60
2022-11-30T11:56:46.361Z,36.08
2022-11-30T11:59:19.213Z,40.20
2022-11-30T12:01:54.208Z,34.33
2022-11-30T12:04:31.561Z,39.55
2022-11-30T12:06:59.865Z,36.33
2022-11-30T12:09:28.498Z,38.77
2022-11-30T12:11:54.947Z,39.80
2022-11-30T12:14:21.487Z,39.72
2022-11-30T12:16:58.919Z,45.33
2022-11-30T12:19:31.475Z,40.80
2022-11-30T12:22:02.980Z,40.90
2022-11-30T12:24:34.789Z,43.38
2022-11-30T12:27:04.831Z,40.50
2022-11-30T12:29:36.204Z,45.25
2022-11-30T12:32:17.576Z,42.00
2022-11-30T12:34:56.765Z,43.22
2022-11-30T12:42:52.038Z,39.53
2022-11-30T12:45:22.206Z,44.58
2022-11-30T12:47:53.586Z,43.10
2022-11-30T12:50:32.146Z,40.00
2022-11-30T12:53:04.069Z,41.42
2022-11-30T12:55:34.474Z,38.20
2022-11-30T12:58:05.300Z,40.72
2022-11-30T13:00:34.721Z,46.42
2022-11-30T13:03:09.757Z,39.55
2022-11-30T13:05:39.907Z,35.88
2022-11-30T13:08:12.952Z,42.75
2022-11-30T13:10:41.651Z,38.97
2022-11-30T13:13:11.726Z,34.33
2022-11-30T13:15:38.999Z,47.88
2022-11-30T13:18:06.564Z,38.30
2022-11-30T13:20:37.028Z,42.50
2022-11-30T13:23:06.174Z,35.65
2022-11-30T13:28:30.736Z,38.75
2022-11-30T13:31:01.385Z,35.17
2022-11-30T13:33:37.297Z,39.60
2022-11-30T13:36:04.400Z,41.53
2022-11-30T13:38:37.534Z,37.55
2022-11-30T13:41:05.261Z,43.03
2022-11-30T13:43:34.351Z,36.05
2022-11-30T13:46:12.850Z,39.45
2022-11-30T13:48:39.981Z,40.90
2022-11-30T13:51:06.698Z,31.65
2022-11-30T13:53:35.167Z,35.10
2022-11-30T13:56:04.950Z,35.28
2022-11-30T13:58:31.514Z,37.25
2022-11-30T14:01:20.369Z,39.80
2022-11-30T14:04:01.572Z,32.33
2022-11-30T14:06:48.171Z,38.58
2022-11-30T14:09:16.309Z,37.72
2022-11-30T14:11:43.213Z,38.45
2022-11-30T14:14:29.949Z,43.60
2022-11-30T14:16:57.229Z,37.78
2022-11-30T14:19:23.598Z,42.92
2022-11-30T14:22:05.574Z,40.38
2022-11-30T14:24:33.633Z,39.08
2022-11-30T14:29:29.585Z,38.95
2022-11-30T14:31:57.281Z,39.10
2022-11-30T14:34:25.738Z,42.97
2022-11-30T14:36:54.995Z,42.53
2022-11-30T14:39:31.689Z,45.28
2022-11-30T14:41:59.620Z,39.30
2022-11-30T14:44:26.058Z,41.90
2022-11-30T14:46:52.702Z,42.05
2022-11-30T14:49:19.901Z,42.85
2022-11-30T14:51:48.035Z,37.25
2022-11-30T14:54:26.527Z,42.10
2022-11-30T14:56:59.349Z,41.80
2022-11-30T14:59:36.446Z,37.17
2022-11-30T15:02:04.344Z,36.10
2022-11-30T15:04:31.384Z,39.25
2022-11-30T15:06:58.071Z,39.47
2022-11-30T15:09:25.772Z,40.58
2022-11-30T15:11:52.486Z,41.25
2022-11-30T15:14:19.214Z,44.38
2022-11-30T15:16:50.881Z,48.15
2022-11-30T15:19:20.204Z,43.72
2022-11-30T15:24:12.874Z,43.08
2022-11-30T15:26:44.687Z,48.15
2022-11-30T15:29:14.073Z,39.88
2022-11-30T15:31:41.960Z,40.08
2022-11-30T15:34:17.849Z,41.72
2022-11-30T15:36:44.993Z,47.13
2022-11-30T15:39:15.847Z,48.67
2022-11-30T15:41:42.229Z,42.95
2022-11-30T15:44:21.689Z,42.15
2022-11-30T15:46:54.579Z,49.30
2022-11-30T15:49:24.396Z,44.42
2022-11-30T15:51:58.341Z,45.60
2022-11-30T15:54:39.505Z,44.88
2022-11-30T15:57:09.022Z,43.10
2022-11-30T15:59:35.812Z,38.22
2022-11-30T16:02:02.950Z,46.17
2022-11-30T16:04:50.736Z,42.35
2022-11-30T16:07:17.861Z,39.08
2022-11-30T16:09:44.282Z,41.45
2022-11-30T16:12:18.786Z,36.85
2022-11-30T16:14:45.159Z,36.28
2022-11-30T16:17:11.539Z,38.63
2022-11-30T16:19:39.243Z,36.63
2022-11-30T16:22:05.593Z,32.45
2022-11-30T16:24:32.095Z,32.17
2022-11-30T16:26:58.632Z,37.90
2022-11-30T16:29:24.959Z,31.73
2022-11-30T16:31:51.281Z,36.85
2022-11-30T16:34:17.696Z,34.25
2022-11-30T16:36:45.396Z,35.38
2022-11-30T16:39:12.306Z,34.70
2022-11-30T16:41:38.679Z,31.85
2022-11-30T16:44:08.279Z,30.65
2022-11-30T16:46:34.661Z,30.33
2022-11-30T16:49:00.953Z,30.23
2022-11-30T16:51:28.101Z,28.90
2022-11-30T16:53:55.857Z,33.60
2022-11-30T16:56:22.224Z,30.85
2022-11-30T16:58:48.698Z,34.47
2022-11-30T17:01:18.424Z,33.85
2022-11-30T17:03:46.166Z,30.27
2022-11-30T17:06:15.540Z,32.25
2022-11-30T17:08:41.864Z,32.95
2022-11-30T17:11:14.866Z,36.00
2022-11-30T17:13:41.141Z,29.35
2022-11-30T17:16:08.533Z,38.20
2022-11-30T17:18:34.828Z,32.90
2022-11-30T17:21:01.157Z,33.10
2022-11-30T17:23:27.434Z,33.72
2022-11-30T17:25:53.790Z,29.58
2022-11-30T17:28:21.587Z,33.28
2022-11-30T17:30:47.925Z,30.33
2022-11-30T17:33:14.253Z,28.67
2022-11-30T17:35:40.513Z,30.85
2022-11-30T17:38:06.838Z,26.42
2022-11-30T17:40:33.135Z,26.88
2022-11-30T17:42:59.434Z,28.40
2022-11-30T17:45:27.119Z,27.00
2022-11-30T17:47:53.408Z,27.13
2022-11-30T17:50:19.743Z,29.02
2022-11-30T17:52:46.030Z,23.63
2022-11-30T17:55:12.351Z,25.75
2022-11-30T17:57:38.659Z,29.60
2022-11-30T18:00:06.110Z,30.23
2022-11-30T18:02:33.893Z,26.88
2022-11-30T18:05:00.289Z,29.52
2022-11-30T18:07:26.693Z,26.90
2022-11-30T18:09:53.029Z,32.00
2022-11-30T18:12:19.309Z,25.35
2022-11-30T18:14:45.945Z,27.02
2022-11-30T18:17:12.410Z,26.17
2022-11-30T18:19:40.161Z,27.85
2022-11-30T18:22:06.476Z,26.25
2022-11-30T18:24:32.885Z,26.80
2022-11-30T18:26:59.162Z,24.88
2022-11-30T18:29:25.492Z,33.05
2022-11-30T18:31:51.793Z,26.98
2022-11-30T18:34:18.133Z,26.50
2022-11-30T18:36:45.737Z,31.83
2022-11-30T18:39:12.046Z,31.17
2022-11-30T18:41:38.364Z,27.42
2022-11-30T18:44:04.742Z,24.15
2022-11-30T18:46:31.162Z,23.63
2022-11-30T18:48:57.576Z,29.83
2022-11-30T18:51:24.826Z,24.77
2022-11-30T18:53:55.541Z,30.52
2022-11-30T18:56:21.834Z,29.88
2022-11-30T18:58:48.290Z,27.50
2022-11-30T19:01:15.470Z,27.55
2022-11-30T19:03:42.092Z,29.00
2022-11-30T19:06:09.293Z,30.88
2022-11-30T19:08:35.829Z,33.53
2022-11-30T19:11:05.442Z,29.05
2022-11-30T19:13:32.126Z,29.88
2022-11-30T19:16:00.790Z,29.30
2022-11-30T19:18:27.273Z,40.85
2022-11-30T19:20:56.676Z,28.45
2022-11-30T19:23:24.323Z,32.83
2022-11-30T19:25:50.626Z,28.05
2022-11-30T19:28:18.629Z,30.35
2022-11-30T19:30:45.034Z,30.88
2022-11-30T19:33:11.413Z,38.30
2022-11-30T19:35:37.781Z,36.15
2022-11-30T19:38:04.077Z,35.78
2022-11-30T19:40:33.407Z,28.80
2022-11-30T19:42:59.809Z,33.35
2022-11-30T19:45:27.588Z,40.60
2022-11-30T19:47:53.890Z,34.88
2022-11-30T19:50:20.793Z,35.47
2022-11-30T19:52:47.071Z,32.60
2022-11-30T19:55:13.695Z,34.63
2022-11-30T19:57:39.955Z,28.95
2022-11-30T20:00:06.969Z,31.67
2022-11-30T20:02:41.040Z,34.20
2022-11-30T20:05:07.759Z,39.53
2022-11-30T20:07:34.851Z,32.22
2022-11-30T20:10:01.207Z,30.52
2022-11-30T20:12:27.533Z,33.15
2022-11-30T20:14:53.856Z,37.33
2022-11-30T20:17:20.152Z,29.88
2022-11-30T20:19:47.785Z,30.20
2022-11-30T20:22:14.082Z,35.00
2022-11-30T20:24:40.391Z,30.30
2022-11-30T20:27:06.672Z,35.85
2022-11-30T20:29:33.075Z,28.02
2022-11-30T20:31:59.380Z,28.38
2022-11-30T20:34:29.745Z,29.67
2022-11-30T20:37:00.393Z,32.58
2022-11-30T20:39:26.729Z,29.50
2022-11-30T20:41:52.988Z,29.95
2022-11-30T20:44:19.257Z,32.63
2022-11-30T20:46:47.973Z,27.83
2022-11-30T20:49:15.440Z,30.40
2022-11-30T20:51:41.822Z,27.58
2022-11-30T20:54:09.888Z,28.77
2022-11-30T20:56:36.325Z,32.95
2022-11-30T20:59:03.654Z,27.60
2022-11-30T21:01:31.269Z,24.60
2022-11-30T21:03:57.629Z,26.58
2022-11-30T21:06:24.117Z,24.30
2022-11-30T21:08:50.546Z,23.13
2022-11-30T21:11:19.272Z,24.73
2022-11-30T21:13:46.793Z,30.02
2022-11-30T21:16:13.834Z,24.45
2022-11-30T21:18:41.256Z,22.40
2022-11-30T21:21:09.438Z,18.60
2022-11-30T21:23:35.881Z,26.05
2022-11-30T21:26:02.891Z,22.92
2022-11-30T21:28:34.936Z,24.95
2022-11-30T21:31:04.455Z,26.38
2022-11-30T21:33:30.826Z,24.05
2022-11-30T21:35:57.151Z,24.05
2022-11-30T21:38:23.507Z,26.67
2022-11-30T21:40:53.658Z,24.73
2022-11-30T21:43:20.029Z,24.48
2022-11-30T21:45:56.739Z,23.20
2022-11-30T21:48:23.102Z,24.23
2022-11-30T21:50:55.879Z,23.58
2022-11-30T21:53:22.174Z,23.52
2022-11-30T21:55:52.827Z,25.98
2022-11-30T21:58:22.434Z,22.10
2022-11-30T22:00:53.867Z,23.65
2022-11-30T22:03:21.602Z,18.85
2022-11-30T22:05:57.126Z,17.42
2022-11-30T22:08:23.378Z,22.10
2022-11-30T22:10:49.647Z,19.02
2022-11-30T22:13:15.998Z,18.77
2022-11-30T22:15:42.363Z,18.33
2022-11-30T22:18:08.683Z,19.45
2022-11-30T22:20:36.307Z,19.98
2022-11-30T22:23:02.635Z,18.10
2022-11-30T22:25:28.984Z,20.30
2022-11-30T22:27:55.270Z,21.45
2022-11-30T22:30:21.545Z,20.13
2022-11-30T22:32:47.843Z,19.17
2022-11-30T22:35:14.251Z,17.77
2022-11-30T22:37:41.902Z,18.83
2022-11-30T22:40:09.123Z,19.40
2022-11-30T22:42:35.424Z,18.70
2022-11-30T22:45:01.727Z,17.90
2022-11-30T22:47:28.053Z,19.13
2022-11-30T22:49:54.350Z,16.90
2022-11-30T22:52:36.448Z,19.40
2022-11-30T22:55:08.836Z,14.95
2022-11-30T22:57:35.225Z,15.00
2022-11-30T23:00:01.564Z,16.85
2022-11-30T23:02:27.883Z,19.73
2022-11-30T23:04:54.229Z,16.35
2022-11-30T23:07:20.548Z,15.90
2022-11-30T23:09:47.295Z,22.10
2022-11-30T23:12:30.153Z,15.93
2022-11-30T23:15:01.380Z,17.08
2022-11-30T23:17:27.710Z,15.98
2022-11-30T23:19:54.058Z,15.30
2022-11-30T23:22:20.354Z,16.90
2022-11-30T23:24:46.625Z,14.75
2022-11-30T23:27:12.938Z,17.38
2022-11-30T23:29:40.576Z,14.68
2022-11-30T23:32:06.917Z,14.98
2022-11-30T23:34:33.267Z,16.73
2022-11-30T23:36:59.525Z,15.48
2022-11-30T23:39:25.829Z,17.77
2022-11-30T23:41:52.120Z,16.15
2022-11-30T23:44:18.406Z,11.88
2022-11-30T23:46:46.204Z,13.77
2022-11-30T23:49:12.669Z,11.95
2022-11-30T23:51:38.942Z,13.90
2022-11-30T23:54:05.609Z,14.43
2022-11-30T23:56:31.910Z,15.77
2022-11-30T23:58:58.245Z,14.13
